sensor_id;sensor_type;location;lat;lon;timestamp;P1;durP1;ratioP1;P2;durP2;ratioP2
21352;SDS011;10834;52.268;6.770;2023-02-28T00:01:50;7.77;;;5.00;;
21352;SDS011;10834;52.268;6.770;2023-02-28T00:04:36;7.07;;;5.03;;
21352;SDS011;10834;52.268;6.770;2023-02-28T00:07:22;6.57;;;4.70;;
21352;SDS011;10834;52.268;6.770;2023-02-28T00:10:09;9.83;;;5.63;;
21352;SDS011;10834;52.268;6.770;2023-02-28T00:13:00;11.73;;;5.20;;
21352;SDS011;10834;52.268;6.770;2023-02-28T00:15:57;7.40;;;4.80;;
21352;SDS011;10834;52.268;6.770;2023-02-28T00:18:45;10.63;;;5.17;;
21352;SDS011;10834;52.268;6.770;2023-02-28T00:21:33;9.63;;;4.87;;
21352;SDS011;10834;52.268;6.770;2023-02-28T00:24:19;7.93;;;4.97;;
21352;SDS011;10834;52.268;6.770;2023-02-28T00:27:05;6.30;;;4.50;;
21352;SDS011;10834;52.268;6.770;2023-02-28T00:29:51;6.13;;;4.97;;
21352;SDS011;10834;52.268;6.770;2023-02-28T00:32:37;8.87;;;5.13;;
21352;SDS011;10834;52.268;6.770;2023-02-28T00:35:23;8.77;;;5.13;;
21352;SDS011;10834;52.268;6.770;2023-02-28T00:38:10;10.60;;;4.83;;
21352;SDS011;10834;52.268;6.770;2023-02-28T00:40:56;10.53;;;5.00;;
21352;SDS011;10834;52.268;6.770;2023-02-28T00:43:42;7.03;;;5.03;;
21352;SDS011;10834;52.268;6.770;2023-02-28T00:46:28;8.37;;;5.47;;
21352;SDS011;10834;52.268;6.770;2023-02-28T00:49:14;8.10;;;4.47;;
21352;SDS011;10834;52.268;6.770;2023-02-28T00:52:00;14.20;;;4.70;;
21352;SDS011;10834;52.268;6.770;2023-02-28T00:54:46;6.93;;;4.60;;
21352;SDS011;10834;52.268;6.770;2023-02-28T00:57:32;6.07;;;4.80;;
21352;SDS011;10834;52.268;6.770;2023-02-28T01:00:18;7.73;;;4.17;;
21352;SDS011;10834;52.268;6.770;2023-02-28T01:03:04;7.37;;;4.53;;
21352;SDS011;10834;52.268;6.770;2023-02-28T01:05:51;7.23;;;4.90;;
21352;SDS011;10834;52.268;6.770;2023-02-28T01:08:38;6.57;;;4.83;;
21352;SDS011;10834;52.268;6.770;2023-02-28T01:11:24;8.77;;;4.90;;
21352;SDS011;10834;52.268;6.770;2023-02-28T01:14:12;6.47;;;4.90;;
21352;SDS011;10834;52.268;6.770;2023-02-28T01:17:00;7.20;;;5.07;;
21352;SDS011;10834;52.268;6.770;2023-02-28T01:19:46;6.67;;;5.03;;
21352;SDS011;10834;52.268;6.770;2023-02-28T01:22:32;7.50;;;4.50;;
21352;SDS011;10834;52.268;6.770;2023-02-28T01:25:20;7.60;;;5.27;;
21352;SDS011;10834;52.268;6.770;2023-02-28T01:28:06;6.77;;;4.67;;
21352;SDS011;10834;52.268;6.770;2023-02-28T01:30:52;13.03;;;5.47;;
21352;SDS011;10834;52.268;6.770;2023-02-28T01:33:38;9.83;;;5.73;;
21352;SDS011;10834;52.268;6.770;2023-02-28T01:36:25;10.73;;;5.20;;
21352;SDS011;10834;52.268;6.770;2023-02-28T01:39:11;9.57;;;5.73;;
21352;SDS011;10834;52.268;6.770;2023-02-28T01:41:58;7.63;;;4.87;;
21352;SDS011;10834;52.268;6.770;2023-02-28T01:44:57;7.73;;;5.30;;
21352;SDS011;10834;52.268;6.770;2023-02-28T01:48:16;9.30;;;5.70;;
21352;SDS011;10834;52.268;6.770;2023-02-28T01:51:08;8.33;;;5.37;;
21352;SDS011;10834;52.268;6.770;2023-02-28T01:54:07;9.57;;;5.97;;
21352;SDS011;10834;52.268;6.770;2023-02-28T01:57:01;8.27;;;5.60;;
21352;SDS011;10834;52.268;6.770;2023-02-28T02:02:50;10.30;;;5.70;;
21352;SDS011;10834;52.268;6.770;2023-02-28T02:05:39;6.73;;;5.17;;
21352;SDS011;10834;52.268;6.770;2023-02-28T02:08:26;10.13;;;5.50;;
21352;SDS011;10834;52.268;6.770;2023-02-28T02:11:14;7.57;;;5.60;;
21352;SDS011;10834;52.268;6.770;2023-02-28T02:14:18;7.30;;;5.23;;
21352;SDS011;10834;52.268;6.770;2023-02-28T02:17:35;6.93;;;5.40;;
21352;SDS011;10834;52.268;6.770;2023-02-28T02:36:27;7.17;;;5.73;;
21352;SDS011;10834;52.268;6.770;2023-02-28T02:39:14;8.57;;;5.90;;
21352;SDS011;10834;52.268;6.770;2023-02-28T02:45:41;9.50;;;5.67;;
21352;SDS011;10834;52.268;6.770;2023-02-28T02:48:29;9.33;;;5.80;;
21352;SDS011;10834;52.268;6.770;2023-02-28T02:51:18;11.20;;;6.03;;
21352;SDS011;10834;52.268;6.770;2023-02-28T02:54:15;10.57;;;5.70;;
21352;SDS011;10834;52.268;6.770;2023-02-28T02:57:06;10.30;;;5.93;;
21352;SDS011;10834;52.268;6.770;2023-02-28T02:59:55;10.43;;;6.53;;
21352;SDS011;10834;52.268;6.770;2023-02-28T03:02:42;9.40;;;5.53;;
21352;SDS011;10834;52.268;6.770;2023-02-28T03:05:36;7.67;;;5.70;;
21352;SDS011;10834;52.268;6.770;2023-02-28T03:08:33;6.90;;;5.57;;
21352;SDS011;10834;52.268;6.770;2023-02-28T03:11:20;7.57;;;5.47;;
21352;SDS011;10834;52.268;6.770;2023-02-28T03:14:09;6.00;;;5.03;;
21352;SDS011;10834;52.268;6.770;2023-02-28T03:23:19;8.83;;;5.80;;
21352;SDS011;10834;52.268;6.770;2023-02-28T03:26:13;8.87;;;5.07;;
21352;SDS011;10834;52.268;6.770;2023-02-28T03:29:13;9.57;;;6.03;;
21352;SDS011;10834;52.268;6.770;2023-02-28T03:35:29;10.07;;;6.30;;
21352;SDS011;10834;52.268;6.770;2023-02-28T03:38:29;12.53;;;5.80;;
21352;SDS011;10834;52.268;6.770;2023-02-28T03:41:35;9.57;;;5.53;;
21352;SDS011;10834;52.268;6.770;2023-02-28T03:44:45;7.50;;;5.50;;
21352;SDS011;10834;52.268;6.770;2023-02-28T03:47:57;9.30;;;6.00;;
21352;SDS011;10834;52.268;6.770;2023-02-28T03:50:45;8.10;;;6.07;;
21352;SDS011;10834;52.268;6.770;2023-02-28T03:53:38;8.00;;;5.57;;
21352;SDS011;10834;52.268;6.770;2023-02-28T03:59:26;9.97;;;6.23;;
21352;SDS011;10834;52.268;6.770;2023-02-28T04:02:16;10.90;;;6.20;;
21352;SDS011;10834;52.268;6.770;2023-02-28T04:05:03;9.77;;;6.17;;
21352;SDS011;10834;52.268;6.770;2023-02-28T04:07:50;10.40;;;6.60;;
21352;SDS011;10834;52.268;6.770;2023-02-28T04:10:36;10.43;;;6.60;;
21352;SDS011;10834;52.268;6.770;2023-02-28T04:13:22;8.63;;;5.47;;
21352;SDS011;10834;52.268;6.770;2023-02-28T04:16:09;8.93;;;6.53;;
21352;SDS011;10834;52.268;6.770;2023-02-28T04:18:57;8.03;;;5.90;;
21352;SDS011;10834;52.268;6.770;2023-02-28T04:21:48;9.33;;;5.87;;
21352;SDS011;10834;52.268;6.770;2023-02-28T04:24:36;11.53;;;6.43;;
21352;SDS011;10834;52.268;6.770;2023-02-28T04:27:26;9.17;;;5.67;;
21352;SDS011;10834;52.268;6.770;2023-02-28T04:30:12;9.23;;;5.73;;
21352;SDS011;10834;52.268;6.770;2023-02-28T04:32:59;13.67;;;6.30;;
21352;SDS011;10834;52.268;6.770;2023-02-28T04:35:45;7.77;;;6.17;;
21352;SDS011;10834;52.268;6.770;2023-02-28T04:38:35;9.27;;;6.27;;
21352;SDS011;10834;52.268;6.770;2023-02-28T04:41:22;9.57;;;6.43;;
21352;SDS011;10834;52.268;6.770;2023-02-28T04:44:09;7.53;;;6.63;;
21352;SDS011;10834;52.268;6.770;2023-02-28T04:46:55;11.63;;;6.50;;
21352;SDS011;10834;52.268;6.770;2023-02-28T04:49:41;10.57;;;6.03;;
21352;SDS011;10834;52.268;6.770;2023-02-28T04:52:27;10.50;;;7.10;;
21352;SDS011;10834;52.268;6.770;2023-02-28T04:55:13;11.70;;;6.20;;
21352;SDS011;10834;52.268;6.770;2023-02-28T04:57:59;9.57;;;6.87;;
21352;SDS011;10834;52.268;6.770;2023-02-28T05:00:45;10.50;;;6.87;;
21352;SDS011;10834;52.268;6.770;2023-02-28T05:03:31;8.57;;;6.30;;
21352;SDS011;10834;52.268;6.770;2023-02-28T05:06:18;9.90;;;6.27;;
21352;SDS011;10834;52.268;6.770;2023-02-28T05:09:05;12.93;;;6.73;;
21352;SDS011;10834;52.268;6.770;2023-02-28T05:11:51;8.80;;;6.33;;
21352;SDS011;10834;52.268;6.770;2023-02-28T05:14:37;10.53;;;6.97;;
21352;SDS011;10834;52.268;6.770;2023-02-28T05:17:23;8.23;;;6.57;;
21352;SDS011;10834;52.268;6.770;2023-02-28T05:20:09;11.20;;;6.57;;
21352;SDS011;10834;52.268;6.770;2023-02-28T05:22:56;9.67;;;6.43;;
21352;SDS011;10834;52.268;6.770;2023-02-28T05:25:44;11.10;;;6.67;;
21352;SDS011;10834;52.268;6.770;2023-02-28T05:28:30;14.33;;;6.63;;
21352;SDS011;10834;52.268;6.770;2023-02-28T05:31:16;10.50;;;6.87;;
21352;SDS011;10834;52.268;6.770;2023-02-28T05:34:02;9.93;;;6.50;;
21352;SDS011;10834;52.268;6.770;2023-02-28T05:36:51;8.97;;;6.40;;
21352;SDS011;10834;52.268;6.770;2023-02-28T05:39:37;7.90;;;6.43;;
21352;SDS011;10834;52.268;6.770;2023-02-28T05:42:23;8.70;;;6.40;;
21352;SDS011;10834;52.268;6.770;2023-02-28T05:45:09;10.53;;;6.70;;
21352;SDS011;10834;52.268;6.770;2023-02-28T05:47:56;8.17;;;6.37;;
21352;SDS011;10834;52.268;6.770;2023-02-28T05:50:42;8.33;;;6.50;;
21352;SDS011;10834;52.268;6.770;2023-02-28T05:53:30;9.67;;;6.30;;
21352;SDS011;10834;52.268;6.770;2023-02-28T05:56:16;9.83;;;7.30;;
21352;SDS011;10834;52.268;6.770;2023-02-28T05:59:02;9.73;;;6.47;;
21352;SDS011;10834;52.268;6.770;2023-02-28T06:01:49;9.30;;;6.60;;
21352;SDS011;10834;52.268;6.770;2023-02-28T06:04:35;9.73;;;7.27;;
21352;SDS011;10834;52.268;6.770;2023-02-28T06:07:21;8.97;;;6.63;;
21352;SDS011;10834;52.268;6.770;2023-02-28T06:10:08;11.13;;;6.30;;
21352;SDS011;10834;52.268;6.770;2023-02-28T06:12:54;10.90;;;6.77;;
21352;SDS011;10834;52.268;6.770;2023-02-28T06:15:41;10.83;;;7.07;;
21352;SDS011;10834;52.268;6.770;2023-02-28T06:18:27;7.60;;;5.73;;
21352;SDS011;10834;52.268;6.770;2023-02-28T06:21:13;7.70;;;6.10;;
21352;SDS011;10834;52.268;6.770;2023-02-28T06:23:59;9.77;;;6.10;;
21352;SDS011;10834;52.268;6.770;2023-02-28T06:26:46;14.77;;;6.30;;
21352;SDS011;10834;52.268;6.770;2023-02-28T06:29:32;12.87;;;5.57;;
21352;SDS011;10834;52.268;6.770;2023-02-28T06:32:19;7.73;;;5.50;;
21352;SDS011;10834;52.268;6.770;2023-02-28T06:35:05;8.07;;;5.27;;
21352;SDS011;10834;52.268;6.770;2023-02-28T06:37:52;6.10;;;4.63;;
21352;SDS011;10834;52.268;6.770;2023-02-28T06:40:38;7.90;;;4.90;;
21352;SDS011;10834;52.268;6.770;2023-02-28T06:43:24;6.67;;;5.30;;
21352;SDS011;10834;52.268;6.770;2023-02-28T06:46:12;9.57;;;4.73;;
21352;SDS011;10834;52.268;6.770;2023-02-28T06:48:59;8.40;;;4.83;;
21352;SDS011;10834;52.268;6.770;2023-02-28T06:51:45;7.00;;;4.50;;
21352;SDS011;10834;52.268;6.770;2023-02-28T06:54:31;8.63;;;4.27;;
21352;SDS011;10834;52.268;6.770;2023-02-28T06:57:17;5.37;;;4.40;;
21352;SDS011;10834;52.268;6.770;2023-02-28T07:00:04;4.80;;;3.77;;
21352;SDS011;10834;52.268;6.770;2023-02-28T07:02:53;6.07;;;4.07;;
21352;SDS011;10834;52.268;6.770;2023-02-28T07:05:40;5.87;;;3.90;;
21352;SDS011;10834;52.268;6.770;2023-02-28T07:08:26;6.47;;;4.27;;
21352;SDS011;10834;52.268;6.770;2023-02-28T07:11:13;8.03;;;4.97;;
21352;SDS011;10834;52.268;6.770;2023-02-28T07:13:59;10.70;;;4.87;;
21352;SDS011;10834;52.268;6.770;2023-02-28T07:16:45;8.50;;;6.33;;
21352;SDS011;10834;52.268;6.770;2023-02-28T07:19:31;7.53;;;4.43;;
21352;SDS011;10834;52.268;6.770;2023-02-28T07:22:17;4.87;;;4.30;;
21352;SDS011;10834;52.268;6.770;2023-02-28T07:25:03;5.23;;;3.50;;
21352;SDS011;10834;52.268;6.770;2023-02-28T07:27:50;6.37;;;3.77;;
21352;SDS011;10834;52.268;6.770;2023-02-28T07:30:36;4.37;;;3.30;;
21352;SDS011;10834;52.268;6.770;2023-02-28T07:33:23;7.23;;;3.13;;
21352;SDS011;10834;52.268;6.770;2023-02-28T07:36:10;4.60;;;2.53;;
21352;SDS011;10834;52.268;6.770;2023-02-28T07:39:00;5.97;;;3.13;;
21352;SDS011;10834;52.268;6.770;2023-02-28T07:41:46;4.67;;;3.30;;
21352;SDS011;10834;52.268;6.770;2023-02-28T07:44:32;3.07;;;2.53;;
21352;SDS011;10834;52.268;6.770;2023-02-28T07:47:18;3.27;;;2.33;;
21352;SDS011;10834;52.268;6.770;2023-02-28T07:50:05;5.23;;;3.50;;
21352;SDS011;10834;52.268;6.770;2023-02-28T07:52:53;3.73;;;3.23;;
21352;SDS011;10834;52.268;6.770;2023-02-28T07:55:39;8.03;;;3.03;;
21352;SDS011;10834;52.268;6.770;2023-02-28T07:58:25;2.63;;;2.00;;
21352;SDS011;10834;52.268;6.770;2023-02-28T08:01:12;3.07;;;2.47;;
21352;SDS011;10834;52.268;6.770;2023-02-28T08:03:58;3.40;;;3.10;;
21352;SDS011;10834;52.268;6.770;2023-02-28T08:06:44;3.53;;;2.20;;
21352;SDS011;10834;52.268;6.770;2023-02-28T08:09:31;5.13;;;2.40;;
21352;SDS011;10834;52.268;6.770;2023-02-28T08:12:18;2.73;;;1.60;;
21352;SDS011;10834;52.268;6.770;2023-02-28T08:15:04;3.77;;;1.53;;
21352;SDS011;10834;52.268;6.770;2023-02-28T08:17:50;3.43;;;1.80;;
21352;SDS011;10834;52.268;6.770;2023-02-28T08:20:36;2.33;;;1.67;;
21352;SDS011;10834;52.268;6.770;2023-02-28T08:23:22;1.97;;;1.43;;
21352;SDS011;10834;52.268;6.770;2023-02-28T08:26:11;1.90;;;1.70;;
21352;SDS011;10834;52.268;6.770;2023-02-28T08:28:57;4.10;;;1.50;;
21352;SDS011;10834;52.268;6.770;2023-02-28T08:31:43;2.97;;;1.90;;
21352;SDS011;10834;52.268;6.770;2023-02-28T08:34:29;1.63;;;1.40;;
21352;SDS011;10834;52.268;6.770;2023-02-28T08:37:15;3.47;;;1.27;;
21352;SDS011;10834;52.268;6.770;2023-02-28T08:40:01;2.97;;;1.20;;
21352;SDS011;10834;52.268;6.770;2023-02-28T08:42:49;1.93;;;1.20;;
21352;SDS011;10834;52.268;6.770;2023-02-28T08:45:35;1.50;;;1.40;;
21352;SDS011;10834;52.268;6.770;2023-02-28T08:48:22;1.70;;;1.20;;
21352;SDS011;10834;52.268;6.770;2023-02-28T08:51:10;1.97;;;1.30;;
21352;SDS011;10834;52.268;6.770;2023-02-28T08:53:59;1.77;;;1.43;;
21352;SDS011;10834;52.268;6.770;2023-02-28T08:56:45;4.47;;;1.20;;
21352;SDS011;10834;52.268;6.770;2023-02-28T08:59:34;2.13;;;1.63;;
21352;SDS011;10834;52.268;6.770;2023-02-28T09:02:20;3.33;;;1.73;;
21352;SDS011;10834;52.268;6.770;2023-02-28T09:05:06;2.33;;;1.50;;
21352;SDS011;10834;52.268;6.770;2023-02-28T09:07:53;1.87;;;1.27;;
21352;SDS011;10834;52.268;6.770;2023-02-28T09:10:39;1.80;;;1.70;;
21352;SDS011;10834;52.268;6.770;2023-02-28T09:13:25;1.83;;;1.47;;
21352;SDS011;10834;52.268;6.770;2023-02-28T09:16:13;3.33;;;1.50;;
21352;SDS011;10834;52.268;6.770;2023-02-28T09:19:00;2.47;;;1.50;;
21352;SDS011;10834;52.268;6.770;2023-02-28T09:21:47;1.30;;;1.20;;
21352;SDS011;10834;52.268;6.770;2023-02-28T09:24:33;2.30;;;1.38;;
21352;SDS011;10834;52.268;6.770;2023-02-28T09:27:20;3.42;;;1.95;;
21352;SDS011;10834;52.268;6.770;2023-02-28T09:30:06;2.42;;;1.60;;
21352;SDS011;10834;52.268;6.770;2023-02-28T09:32:56;1.90;;;1.38;;
21352;SDS011;10834;52.268;6.770;2023-02-28T09:35:42;1.88;;;1.30;;
21352;SDS011;10834;52.268;6.770;2023-02-28T09:38:29;1.45;;;0.98;;
21352;SDS011;10834;52.268;6.770;2023-02-28T09:41:17;1.80;;;1.20;;
21352;SDS011;10834;52.268;6.770;2023-02-28T09:44:12;1.15;;;0.93;;
21352;SDS011;10834;52.268;6.770;2023-02-28T09:47:12;1.52;;;1.02;;
21352;SDS011;10834;52.268;6.770;2023-02-28T09:50:15;1.45;;;1.35;;
21352;SDS011;10834;52.268;6.770;2023-02-28T09:53:18;1.50;;;0.88;;
21352;SDS011;10834;52.268;6.770;2023-02-28T09:56:09;1.53;;;1.40;;
21352;SDS011;10834;52.268;6.770;2023-02-28T09:59:00;2.80;;;1.50;;
21352;SDS011;10834;52.268;6.770;2023-02-28T10:01:55;3.17;;;1.20;;
21352;SDS011;10834;52.268;6.770;2023-02-28T10:04:50;1.30;;;1.20;;
21352;SDS011;10834;52.268;6.770;2023-02-28T10:10:48;1.63;;;1.10;;
21352;SDS011;10834;52.268;6.770;2023-02-28T10:16:45;1.70;;;1.53;;
21352;SDS011;10834;52.268;6.770;2023-02-28T10:22:40;4.53;;;2.63;;
21352;SDS011;10834;52.268;6.770;2023-02-28T10:25:43;1.03;;;0.87;;
21352;SDS011;10834;52.268;6.770;2023-02-28T10:28:33;0.70;;;0.70;;
21352;SDS011;10834;52.268;6.770;2023-02-28T10:31:19;1.23;;;0.77;;
21352;SDS011;10834;52.268;6.770;2023-02-28T10:34:07;0.97;;;0.97;;
21352;SDS011;10834;52.268;6.770;2023-02-28T10:36:57;1.23;;;1.10;;
21352;SDS011;10834;52.268;6.770;2023-02-28T10:39:52;1.40;;;1.30;;
21352;SDS011;10834;52.268;6.770;2023-02-28T10:42:38;1.53;;;1.10;;
21352;SDS011;10834;52.268;6.770;2023-02-28T10:45:25;1.93;;;1.10;;
21352;SDS011;10834;52.268;6.770;2023-02-28T10:51:01;1.10;;;1.00;;
21352;SDS011;10834;52.268;6.770;2023-02-28T10:53:50;1.10;;;1.00;;
21352;SDS011;10834;52.268;6.770;2023-02-28T10:56:37;1.93;;;1.13;;
21352;SDS011;10834;52.268;6.770;2023-02-28T10:59:26;3.07;;;0.97;;
21352;SDS011;10834;52.268;6.770;2023-02-28T11:02:34;0.87;;;0.80;;
21352;SDS011;10834;52.268;6.770;2023-02-28T11:08:12;1.60;;;1.10;;
21352;SDS011;10834;52.268;6.770;2023-02-28T11:11:05;2.07;;;1.30;;
21352;SDS011;10834;52.268;6.770;2023-02-28T11:13:53;1.70;;;1.13;;
21352;SDS011;10834;52.268;6.770;2023-02-28T11:16:48;0.97;;;0.80;;
21352;SDS011;10834;52.268;6.770;2023-02-28T11:19:38;2.83;;;1.03;;
21352;SDS011;10834;52.268;6.770;2023-02-28T11:22:30;1.27;;;1.07;;
21352;SDS011;10834;52.268;6.770;2023-02-28T11:28:33;1.00;;;0.90;;
21352;SDS011;10834;52.268;6.770;2023-02-28T11:31:19;1.40;;;1.00;;
21352;SDS011;10834;52.268;6.770;2023-02-28T11:34:40;1.50;;;1.10;;
21352;SDS011;10834;52.268;6.770;2023-02-28T11:37:21;1.07;;;0.90;;
21352;SDS011;10834;52.268;6.770;2023-02-28T11:40:22;1.03;;;0.90;;
21352;SDS011;10834;52.268;6.770;2023-02-28T11:49:57;1.37;;;0.83;;
21352;SDS011;10834;52.268;6.770;2023-02-28T11:56:14;1.53;;;1.37;;
21352;SDS011;10834;52.268;6.770;2023-02-28T12:02:59;1.40;;;1.30;;
21352;SDS011;10834;52.268;6.770;2023-02-28T12:24:14;2.10;;;1.60;;
21352;SDS011;10834;52.268;6.770;2023-02-28T12:27:31;3.20;;;2.27;;
21352;SDS011;10834;52.268;6.770;2023-02-28T12:33:20;2.37;;;1.50;;
21352;SDS011;10834;52.268;6.770;2023-02-28T12:36:10;1.97;;;1.37;;
21352;SDS011;10834;52.268;6.770;2023-02-28T12:39:05;3.70;;;1.30;;
21352;SDS011;10834;52.268;6.770;2023-02-28T12:42:01;1.53;;;1.43;;
21352;SDS011;10834;52.268;6.770;2023-02-28T12:44:54;1.97;;;1.77;;
21352;SDS011;10834;52.268;6.770;2023-02-28T12:48:04;2.87;;;1.20;;
21352;SDS011;10834;52.268;6.770;2023-02-28T12:50:53;1.97;;;1.70;;
21352;SDS011;10834;52.268;6.770;2023-02-28T12:56:53;5.93;;;1.37;;
21352;SDS011;10834;52.268;6.770;2023-02-28T12:59:48;1.93;;;1.50;;
21352;SDS011;10834;52.268;6.770;2023-02-28T13:08:53;6.13;;;2.13;;
21352;SDS011;10834;52.268;6.770;2023-02-28T13:17:36;1.87;;;1.40;;
21352;SDS011;10834;52.268;6.770;2023-02-28T15:04:52;2.87;;;1.53;;
21352;SDS011;10834;52.268;6.770;2023-02-28T15:12:18;2.03;;;1.27;;
21352;SDS011;10834;52.268;6.770;2023-02-28T16:13:26;1.87;;;1.67;;
21352;SDS011;10834;52.268;6.770;2023-02-28T16:20:34;2.00;;;1.83;;
21352;SDS011;10834;52.268;6.770;2023-02-28T17:01:30;2.17;;;1.97;;
21352;SDS011;10834;52.268;6.770;2023-02-28T17:16:13;2.93;;;1.70;;
21352;SDS011;10834;52.268;6.770;2023-02-28T17:26:55;1.80;;;1.70;;
21352;SDS011;10834;52.268;6.770;2023-02-28T17:33:32;4.37;;;2.03;;
21352;SDS011;10834;52.268;6.770;2023-02-28T18:18:23;4.03;;;3.33;;
21352;SDS011;10834;52.268;6.770;2023-02-28T18:29:06;6.43;;;3.40;;
21352;SDS011;10834;52.268;6.770;2023-02-28T18:46:37;5.50;;;4.20;;
21352;SDS011;10834;52.268;6.770;2023-02-28T18:54:17;5.53;;;4.37;;
21352;SDS011;10834;52.268;6.770;2023-02-28T19:20:19;11.60;;;7.33;;
21352;SDS011;10834;52.268;6.770;2023-02-28T19:34:55;10.73;;;7.07;;
21352;SDS011;10834;52.268;6.770;2023-02-28T19:59:57;14.60;;;8.83;;
21352;SDS011;10834;52.268;6.770;2023-02-28T20:03:34;13.77;;;9.10;;
21352;SDS011;10834;52.268;6.770;2023-02-28T20:14:51;13.13;;;8.77;;
21352;SDS011;10834;52.268;6.770;2023-02-28T20:33:24;15.23;;;9.97;;
21352;SDS011;10834;52.268;6.770;2023-02-28T20:52:00;12.10;;;7.43;;
21352;SDS011;10834;52.268;6.770;2023-02-28T21:10:17;14.43;;;9.87;;
21352;SDS011;10834;52.268;6.770;2023-02-28T22:12:17;17.27;;;10.63;;
21352;SDS011;10834;52.268;6.770;2023-02-28T22:38:40;26.13;;;13.17;;
21352;SDS011;10834;52.268;6.770;2023-02-28T22:53:03;12.83;;;8.10;;
21352;SDS011;10834;52.268;6.770;2023-02-28T23:10:12;15.50;;;9.73;;
21352;SDS011;10834;52.268;6.770;2023-02-28T23:24:43;14.33;;;9.90;;
21352;SDS011;10834;52.268;6.770;2023-02-28T23:42:28;18.27;;;9.90;;
21352;SDS011;10834;52.268;6.770;2023-02-28T23:46:03;15.30;;;9.53;;
21352;SDS011;10834;52.268;6.770;2023-02-28T23:49:08;18.53;;;10.53;;
21352;SDS011;10834;52.268;6.770;2023-02-28T23:59:54;15.10;;;9.93;;
